createdAt,value
2022-10-22T00:02:22.618Z,14.31
2022-10-22T00:04:50.260Z,14.21
2022-10-22T00:07:18.819Z,14.13
2022-10-22T00:09:46.400Z,14.07
2022-10-22T00:12:15.440Z,14.00
2022-10-22T00:14:42.681Z,14.00
2022-10-22T00:17:11.615Z,13.97
2022-10-22T00:19:39.767Z,14.01
2022-10-22T00:22:08.506Z,14.06
2022-10-22T00:24:37.200Z,14.17
2022-10-22T00:27:04.224Z,14.23
2022-10-22T00:29:31.408Z,14.22
2022-10-22T00:31:58.213Z,14.20
2022-10-22T00:34:25.508Z,14.17
2022-10-22T00:36:52.684Z,14.11
2022-10-22T00:39:21.811Z,14.11
2022-10-22T00:41:50.671Z,14.12
2022-10-22T00:44:54.717Z,14.12
2022-10-22T00:47:23.592Z,14.12
2022-10-22T00:49:52.528Z,14.12
2022-10-22T00:52:19.844Z,14.17
2022-10-22T00:54:46.777Z,14.18
2022-10-22T00:57:13.540Z,14.21
2022-10-22T00:59:40.558Z,14.25
2022-10-22T01:02:07.243Z,14.33
2022-10-22T01:04:33.993Z,14.38
2022-10-22T01:07:01.234Z,14.42
2022-10-22T01:09:46.800Z,14.48
2022-10-22T01:12:34.238Z,14.52
2022-10-22T01:15:53.733Z,14.58
2022-10-22T01:18:29.575Z,14.57
2022-10-22T01:21:15.739Z,14.56
2022-10-22T01:24:09.232Z,14.59
2022-10-22T01:27:10.243Z,14.61
2022-10-22T01:29:42.436Z,14.58
2022-10-22T01:32:16.554Z,14.56
2022-10-22T01:34:46.676Z,14.48
2022-10-22T01:37:15.386Z,14.46
2022-10-22T01:39:46.487Z,14.41
2022-10-22T01:42:14.354Z,14.34
2022-10-22T01:44:41.499Z,14.24
2022-10-22T01:47:33.419Z,14.16
2022-10-22T01:50:32.355Z,14.09
2022-10-22T01:53:21.748Z,14.07
2022-10-22T01:55:57.575Z,14.11
2022-10-22T01:58:39.772Z,14.11
2022-10-22T02:01:16.826Z,14.12
2022-10-22T02:03:55.212Z,14.17
2022-10-22T02:06:24.799Z,14.20
2022-10-22T02:08:54.530Z,14.23
2022-10-22T02:11:21.571Z,14.28
2022-10-22T02:13:54.120Z,14.27
2022-10-22T02:16:34.610Z,14.12
2022-10-22T02:19:09.185Z,14.07
2022-10-22T02:21:35.933Z,14.04
2022-10-22T02:24:02.882Z,14.04
2022-10-22T02:26:44.751Z,14.08
2022-10-22T02:29:16.622Z,14.26
2022-10-22T02:31:45.449Z,14.36
2022-10-22T02:34:17.210Z,14.40
2022-10-22T02:36:48.183Z,14.37
2022-10-22T02:39:19.864Z,14.26
2022-10-22T02:41:47.094Z,14.26
2022-10-22T02:44:15.130Z,14.27
2022-10-22T02:46:43.238Z,14.28
2022-10-22T02:49:09.933Z,14.27
2022-10-22T02:51:36.678Z,14.26
2022-10-22T02:54:03.801Z,14.25
2022-10-22T02:56:30.569Z,14.25
2022-10-22T02:58:57.571Z,14.32
2022-10-22T03:01:24.375Z,14.39
2022-10-22T03:03:51.583Z,14.46
2022-10-22T03:06:18.781Z,14.56
2022-10-22T03:08:46.646Z,14.67
2022-10-22T03:11:13.721Z,14.72
2022-10-22T03:13:40.453Z,14.74
2022-10-22T03:16:07.291Z,14.78
2022-10-22T03:18:34.125Z,14.82
2022-10-22T03:21:12.656Z,14.84
2022-10-22T03:23:42.553Z,14.85
2022-10-22T03:26:12.697Z,14.85
2022-10-22T03:28:41.048Z,14.84
2022-10-22T03:31:08.204Z,14.83
2022-10-22T03:33:35.044Z,14.75
2022-10-22T03:36:02.061Z,14.69
2022-10-22T03:38:29.864Z,14.65
2022-10-22T03:40:56.717Z,14.67
2022-10-22T03:43:23.692Z,14.70
2022-10-22T03:45:50.367Z,14.71
2022-10-22T03:48:17.098Z,14.71
2022-10-22T03:50:44.044Z,14.70
2022-10-22T03:53:11.115Z,14.64
2022-10-22T03:55:40.781Z,14.63
2022-10-22T03:58:07.762Z,14.65
2022-10-22T04:00:35.767Z,14.62
2022-10-22T04:03:02.520Z,14.61
2022-10-22T04:05:29.320Z,14.54
2022-10-22T04:07:55.998Z,14.50
2022-10-22T04:10:22.682Z,14.46
2022-10-22T04:12:49.830Z,14.40
2022-10-22T04:15:16.667Z,14.37
2022-10-22T04:17:43.852Z,14.33
2022-10-22T04:20:11.279Z,14.32
2022-10-22T04:22:38.008Z,14.27
2022-10-22T04:25:05.479Z,14.25
2022-10-22T04:27:33.416Z,14.23
2022-10-22T04:30:00.725Z,14.22
2022-10-22T04:32:28.077Z,14.30
2022-10-22T04:34:54.837Z,14.29
2022-10-22T04:37:21.634Z,14.23
2022-10-22T04:39:48.325Z,14.15
2022-10-22T04:42:15.063Z,14.08
2022-10-22T04:44:41.805Z,13.99
2022-10-22T04:47:08.471Z,13.96
2022-10-22T04:49:35.794Z,13.93
2022-10-22T04:52:02.589Z,13.81
2022-10-22T04:54:32.264Z,13.75
2022-10-22T04:57:00.139Z,13.71
2022-10-22T04:59:26.934Z,13.67
2022-10-22T05:01:53.591Z,13.63
2022-10-22T05:04:20.385Z,13.59
2022-10-22T05:06:47.211Z,13.55
2022-10-22T05:09:17.370Z,13.57
2022-10-22T05:11:48.256Z,13.59
2022-10-22T05:14:20.623Z,13.65
2022-10-22T05:16:48.813Z,13.65
2022-10-22T05:19:24.002Z,13.68
2022-10-22T05:21:52.672Z,13.69
2022-10-22T05:24:19.472Z,13.65
2022-10-22T05:26:48.401Z,13.62
2022-10-22T05:29:15.231Z,13.62
2022-10-22T05:31:41.974Z,13.66
2022-10-22T05:34:08.906Z,13.62
2022-10-22T05:36:35.673Z,13.60
2022-10-22T05:39:02.569Z,13.62
2022-10-22T05:41:29.462Z,13.63
2022-10-22T05:44:00.387Z,13.63
2022-10-22T05:46:30.728Z,13.62
2022-10-22T05:49:00.724Z,13.62
2022-10-22T05:51:29.140Z,13.62
2022-10-22T05:53:58.636Z,13.66
2022-10-22T05:56:27.203Z,13.72
2022-10-22T05:58:53.996Z,13.75
2022-10-22T06:01:22.981Z,13.77
2022-10-22T06:03:52.918Z,13.76
2022-10-22T06:06:24.507Z,13.77
2022-10-22T06:08:53.555Z,13.77
2022-10-22T06:11:22.777Z,13.72
2022-10-22T06:13:50.821Z,13.65
2022-10-22T06:16:17.680Z,13.60
2022-10-22T06:18:44.440Z,13.58
2022-10-22T06:21:13.464Z,13.59
2022-10-22T06:23:41.042Z,13.58
2022-10-22T06:26:08.969Z,13.55
2022-10-22T06:28:36.418Z,13.43
2022-10-22T06:31:04.438Z,13.35
2022-10-22T06:33:34.014Z,13.38
2022-10-22T06:36:11.476Z,13.45
2022-10-22T06:38:38.411Z,13.51
2022-10-22T06:41:08.126Z,13.51
2022-10-22T06:43:35.451Z,13.46
2022-10-22T06:46:04.937Z,13.50
2022-10-22T06:48:31.799Z,13.54
2022-10-22T06:51:03.007Z,13.65
2022-10-22T06:53:30.164Z,13.71
2022-10-22T06:55:57.024Z,13.78
2022-10-22T06:58:23.908Z,13.80
2022-10-22T07:00:59.916Z,13.74
2022-10-22T07:03:26.701Z,13.74
2022-10-22T07:05:53.622Z,13.77
2022-10-22T07:08:20.403Z,13.82
2022-10-22T07:10:47.387Z,13.83
2022-10-22T07:13:14.289Z,13.83
2022-10-22T07:15:41.402Z,13.84
2022-10-22T07:18:08.214Z,13.84
2022-10-22T07:20:35.034Z,13.83
2022-10-22T07:23:01.919Z,13.81
2022-10-22T07:25:28.641Z,13.78
2022-10-22T07:27:55.383Z,13.74
2022-10-22T07:30:22.130Z,13.74
2022-10-22T07:32:48.968Z,13.78
2022-10-22T07:35:15.695Z,13.78
2022-10-22T07:37:43.297Z,13.76
2022-10-22T07:40:10.603Z,13.81
2022-10-22T07:42:37.296Z,13.88
2022-10-22T07:45:04.374Z,13.95
2022-10-22T07:47:31.225Z,13.96
2022-10-22T07:49:57.923Z,14.04
2022-10-22T07:52:24.612Z,14.13
2022-10-22T07:54:51.534Z,14.18
2022-10-22T07:57:18.257Z,14.28
2022-10-22T07:59:45.130Z,14.38
2022-10-22T08:02:12.749Z,14.64
2022-10-22T08:04:40.045Z,14.79
2022-10-22T08:07:06.784Z,14.94
2022-10-22T08:09:33.905Z,15.20
2022-10-22T08:12:01.655Z,15.46
2022-10-22T08:14:28.534Z,15.72
2022-10-22T08:16:55.252Z,15.96
2022-10-22T08:19:22.007Z,16.19
2022-10-22T08:21:48.853Z,16.47
2022-10-22T08:24:15.820Z,16.74
2022-10-22T08:26:42.517Z,16.91
2022-10-22T08:29:12.257Z,17.07
2022-10-22T08:31:38.924Z,17.30
2022-10-22T08:34:05.648Z,17.46
2022-10-22T08:36:32.491Z,17.67
2022-10-22T08:38:59.260Z,17.73
2022-10-22T08:41:26.179Z,17.69
2022-10-22T08:44:01.826Z,17.72
2022-10-22T08:46:40.424Z,17.61
2022-10-22T08:49:16.402Z,17.56
2022-10-22T08:51:43.248Z,17.46
2022-10-22T08:54:28.677Z,17.46
2022-10-22T08:57:24.350Z,17.45
2022-10-22T08:59:57.010Z,17.61
2022-10-22T09:03:03.881Z,17.87
2022-10-22T09:05:56.475Z,17.87
2022-10-22T09:08:23.728Z,17.98
2022-10-22T09:11:01.686Z,18.07
2022-10-22T09:13:29.523Z,18.26
2022-10-22T09:16:00.245Z,18.60
2022-10-22T09:18:30.111Z,18.62
2022-10-22T09:21:04.337Z,18.72
2022-10-22T09:23:39.760Z,18.98
2022-10-22T09:26:15.190Z,19.14
2022-10-22T09:28:43.412Z,19.18
2022-10-22T09:31:13.013Z,19.22
2022-10-22T09:33:41.183Z,19.16
2022-10-22T09:36:14.130Z,19.10
2022-10-22T09:38:45.294Z,19.10
2022-10-22T09:41:12.582Z,19.02
2022-10-22T09:43:39.297Z,19.07
2022-10-22T09:46:08.556Z,19.16
2022-10-22T09:48:39.224Z,19.23
2022-10-22T09:51:18.798Z,19.17
2022-10-22T09:53:57.700Z,19.26
2022-10-22T09:56:27.737Z,19.55
2022-10-22T09:58:57.460Z,19.64
2022-10-22T10:01:34.067Z,19.75
2022-10-22T10:04:10.166Z,19.91
2022-10-22T10:06:41.762Z,20.09
2022-10-22T10:09:24.281Z,20.05
2022-10-22T10:12:08.454Z,20.15
2022-10-22T10:15:06.790Z,20.36
2022-10-22T10:17:43.704Z,20.67
2022-10-22T10:20:14.478Z,20.75
2022-10-22T10:22:59.329Z,20.82
2022-10-22T10:25:40.846Z,20.92
2022-10-22T10:28:21.478Z,20.99
2022-10-22T10:30:57.262Z,21.25
2022-10-22T10:34:04.616Z,21.39
2022-10-22T10:37:09.040Z,21.53
2022-10-22T10:40:00.384Z,21.78
2022-10-22T10:42:29.829Z,21.86
2022-10-22T10:45:28.309Z,21.97
2022-10-22T10:48:37.072Z,22.13
2022-10-22T10:51:11.389Z,22.14
2022-10-22T10:53:51.175Z,21.86
2022-10-22T10:56:28.083Z,22.28
2022-10-22T10:59:11.512Z,22.69
2022-10-22T11:01:47.252Z,22.98
2022-10-22T11:04:38.900Z,23.33
2022-10-22T11:07:23.434Z,23.58
2022-10-22T11:10:30.732Z,23.75
2022-10-22T11:13:06.474Z,23.66
2022-10-22T11:15:35.740Z,24.06
2022-10-22T11:18:12.212Z,24.18
2022-10-22T11:21:01.280Z,24.46
2022-10-22T11:23:43.418Z,23.78
2022-10-22T11:26:29.957Z,23.33
2022-10-22T11:28:59.537Z,22.48
2022-10-22T11:31:27.491Z,22.43
2022-10-22T11:34:05.011Z,22.96
2022-10-22T11:36:43.621Z,23.18
2022-10-22T11:39:31.305Z,23.73
2022-10-22T11:42:02.001Z,24.49
2022-10-22T11:44:30.142Z,24.19
2022-10-22T11:47:08.373Z,24.51
2022-10-22T11:49:55.482Z,25.00
2022-10-22T11:52:26.526Z,24.77
2022-10-22T11:55:01.371Z,25.32
2022-10-22T11:57:39.345Z,25.74
2022-10-22T12:00:30.186Z,26.11
2022-10-22T12:03:16.649Z,26.33
2022-10-22T12:05:44.977Z,26.57
2022-10-22T12:08:19.903Z,26.47
2022-10-22T12:11:14.773Z,26.46
2022-10-22T12:14:13.373Z,26.67
2022-10-22T12:17:03.633Z,26.68
2022-10-22T12:19:34.917Z,26.67
2022-10-22T12:22:30.505Z,26.85
2022-10-22T12:25:02.235Z,26.94
2022-10-22T12:27:38.157Z,27.33
2022-10-22T12:30:34.577Z,27.41
2022-10-22T12:33:06.754Z,27.19
2022-10-22T12:35:41.670Z,27.26
2022-10-22T12:38:15.332Z,27.33
2022-10-22T12:40:45.889Z,27.13
2022-10-22T12:43:19.512Z,27.15
2022-10-22T12:45:49.292Z,27.24
2022-10-22T12:48:23.356Z,27.35
2022-10-22T12:50:55.915Z,27.65
2022-10-22T12:53:35.193Z,27.81
2022-10-22T12:56:04.864Z,27.71
2022-10-22T12:58:41.027Z,27.52
2022-10-22T13:01:11.960Z,27.27
2022-10-22T13:03:45.814Z,27.49
2022-10-22T13:06:18.759Z,27.51
2022-10-22T13:09:07.801Z,27.50
2022-10-22T13:11:40.497Z,27.65
2022-10-22T13:14:30.672Z,27.55
2022-10-22T13:17:17.619Z,27.57
2022-10-22T13:19:53.574Z,27.53
2022-10-22T13:22:28.364Z,27.55
2022-10-22T13:24:59.895Z,27.45
2022-10-22T13:27:28.301Z,27.41
2022-10-22T13:29:57.502Z,27.12
2022-10-22T13:32:32.060Z,26.98
2022-10-22T13:35:01.186Z,26.99
2022-10-22T13:37:29.956Z,26.88
2022-10-22T13:39:57.022Z,26.74
2022-10-22T13:42:23.728Z,26.57
2022-10-22T13:44:50.891Z,26.25
2022-10-22T13:47:35.905Z,26.24
2022-10-22T13:50:11.251Z,25.91
2022-10-22T13:52:44.429Z,25.36
2022-10-22T13:55:25.648Z,24.53
2022-10-22T13:57:56.650Z,23.79
2022-10-22T14:00:24.066Z,23.46
2022-10-22T14:02:54.293Z,23.19
2022-10-22T14:05:21.440Z,23.00
2022-10-22T14:07:49.066Z,22.87
2022-10-22T14:10:19.931Z,22.75
2022-10-22T14:12:52.395Z,22.56
2022-10-22T14:15:24.095Z,22.32
2022-10-22T14:17:56.942Z,22.17
2022-10-22T14:20:27.700Z,22.08
2022-10-22T14:22:55.321Z,22.02
2022-10-22T14:25:24.918Z,21.81
2022-10-22T14:27:52.285Z,21.64
2022-10-22T14:30:21.994Z,21.55
2022-10-22T14:32:49.975Z,21.54
2022-10-22T14:35:20.390Z,21.56
2022-10-22T14:37:47.302Z,21.43
2022-10-22T14:40:17.894Z,21.42
2022-10-22T14:42:47.298Z,21.34
2022-10-22T14:45:21.153Z,21.29
2022-10-22T14:47:49.297Z,21.09
2022-10-22T14:50:16.851Z,20.92
2022-10-22T14:52:44.692Z,20.87
2022-10-22T14:55:14.595Z,20.80
2022-10-22T14:57:41.919Z,20.81
2022-10-22T15:00:12.789Z,20.75
2022-10-22T15:02:39.907Z,20.62
2022-10-22T15:05:07.385Z,20.53
2022-10-22T15:07:34.598Z,20.50
2022-10-22T15:10:01.649Z,20.41
2022-10-22T15:12:29.210Z,20.31
2022-10-22T15:14:56.136Z,20.17
2022-10-22T15:17:22.939Z,20.02
2022-10-22T15:19:49.803Z,19.88
2022-10-22T15:22:17.275Z,19.79
2022-10-22T15:24:44.674Z,19.63
2022-10-22T15:27:14.897Z,19.54
2022-10-22T15:29:42.642Z,19.49
2022-10-22T15:32:12.859Z,19.43
2022-10-22T15:34:40.425Z,19.34
2022-10-22T15:37:09.688Z,19.23
2022-10-22T15:39:40.572Z,19.10
2022-10-22T15:42:09.548Z,19.04
2022-10-22T15:44:36.644Z,19.05
2022-10-22T15:47:04.312Z,19.00
2022-10-22T15:49:31.058Z,18.89
2022-10-22T15:51:57.820Z,18.80
2022-10-22T15:54:28.530Z,18.80
2022-10-22T15:56:56.488Z,18.68
2022-10-22T15:59:23.523Z,18.39
2022-10-22T16:01:50.259Z,18.20
2022-10-22T16:04:17.851Z,18.04
2022-10-22T16:06:49.700Z,17.93
2022-10-22T16:09:20.214Z,17.80
2022-10-22T16:11:47.250Z,17.73
2022-10-22T16:14:15.899Z,17.68
2022-10-22T16:16:45.016Z,17.63
2022-10-22T16:19:13.213Z,17.52
2022-10-22T16:21:40.611Z,17.54
2022-10-22T16:24:08.669Z,17.48
2022-10-22T16:26:35.927Z,17.34
2022-10-22T16:29:03.688Z,17.24
2022-10-22T16:31:30.476Z,17.24
2022-10-22T16:33:57.883Z,17.20
2022-10-22T16:36:25.183Z,17.07
2022-10-22T16:38:51.987Z,16.96
2022-10-22T16:41:20.987Z,16.82
2022-10-22T16:43:50.523Z,16.73
2022-10-22T16:46:19.377Z,16.73
2022-10-22T16:48:48.133Z,16.61
2022-10-22T16:51:17.516Z,16.66
2022-10-22T16:53:44.756Z,16.55
2022-10-22T16:56:13.986Z,16.43
2022-10-22T16:58:48.921Z,16.50
2022-10-22T17:01:18.250Z,16.50
2022-10-22T17:03:45.685Z,16.47
2022-10-22T17:06:12.664Z,16.41
2022-10-22T17:08:41.030Z,16.27
2022-10-22T17:11:17.748Z,16.21
2022-10-22T17:13:48.648Z,16.18
2022-10-22T17:16:19.260Z,16.14
2022-10-22T17:21:15.286Z,16.17
2022-10-22T17:23:42.691Z,16.13
2022-10-22T17:26:17.440Z,15.96
2022-10-22T17:28:44.655Z,15.84
2022-10-22T17:31:16.372Z,15.94
2022-10-22T17:33:43.323Z,15.92
2022-10-22T17:36:11.901Z,15.87
2022-10-22T17:38:40.515Z,15.81
2022-10-22T17:41:12.496Z,15.78
2022-10-22T17:43:41.522Z,15.77
2022-10-22T17:46:13.136Z,15.77
2022-10-22T17:48:39.841Z,15.77
2022-10-22T17:51:08.289Z,15.70
2022-10-22T17:53:36.000Z,15.68
2022-10-22T17:56:06.908Z,15.64
2022-10-22T17:58:33.627Z,15.59
2022-10-22T18:01:00.547Z,15.46
2022-10-22T18:03:27.841Z,15.40
2022-10-22T18:05:54.868Z,15.39
2022-10-22T18:08:24.138Z,15.44
2022-10-22T18:10:50.801Z,15.43
2022-10-22T18:13:17.494Z,15.48
2022-10-22T18:15:44.258Z,15.42
2022-10-22T18:18:13.657Z,15.25
2022-10-22T18:20:40.362Z,15.23
2022-10-22T18:23:07.114Z,15.18
2022-10-22T18:25:38.632Z,15.22
2022-10-22T18:28:05.265Z,15.22
2022-10-22T18:30:32.028Z,15.20
2022-10-22T18:32:58.687Z,15.20
2022-10-22T18:35:25.349Z,15.17
2022-10-22T18:37:52.023Z,15.17
2022-10-22T18:40:18.858Z,15.13
2022-10-22T18:42:45.909Z,15.16
2022-10-22T18:45:12.971Z,15.13
2022-10-22T18:47:41.545Z,15.00
2022-10-22T18:50:09.351Z,15.03
2022-10-22T18:52:36.014Z,14.93
2022-10-22T18:55:02.815Z,14.77
2022-10-22T18:57:29.672Z,14.73
2022-10-22T18:59:58.668Z,14.74
2022-10-22T19:02:26.538Z,14.71
2022-10-22T19:04:53.244Z,14.75
2022-10-22T19:07:19.883Z,14.73
2022-10-22T19:09:46.635Z,14.77
2022-10-22T19:12:14.977Z,14.76
2022-10-22T19:14:42.616Z,14.73
2022-10-22T19:17:09.400Z,14.76
2022-10-22T19:19:36.123Z,14.72
2022-10-22T19:22:03.071Z,14.71
2022-10-22T19:24:29.795Z,14.64
2022-10-22T19:26:56.465Z,14.58
2022-10-22T19:29:23.181Z,14.60
2022-10-22T19:31:50.922Z,14.58
2022-10-22T19:34:19.037Z,14.66
2022-10-22T19:36:46.043Z,14.69
2022-10-22T19:39:16.587Z,14.71
2022-10-22T19:41:43.654Z,14.81
2022-10-22T19:44:10.807Z,14.89
2022-10-22T19:46:37.570Z,14.90
2022-10-22T19:49:04.981Z,14.91
2022-10-22T19:51:33.749Z,14.68
2022-10-22T19:54:03.328Z,14.48
2022-10-22T19:56:30.678Z,14.41
2022-10-22T19:58:57.668Z,14.42
2022-10-22T20:01:25.694Z,14.57
2022-10-22T20:03:53.658Z,14.68
2022-10-22T20:06:21.958Z,14.76
2022-10-22T20:08:51.066Z,14.80
2022-10-22T20:11:23.690Z,14.79
2022-10-22T20:13:52.333Z,14.83
2022-10-22T20:16:23.259Z,14.80
2022-10-22T20:18:51.355Z,14.80
2022-10-22T20:21:21.824Z,14.87
2022-10-22T20:23:52.595Z,14.83
2022-10-22T20:26:20.230Z,14.80
2022-10-22T20:28:47.303Z,14.77
2022-10-22T20:31:18.903Z,14.75
2022-10-22T20:33:46.761Z,14.80
2022-10-22T20:36:17.134Z,14.77
2022-10-22T20:38:45.465Z,14.73
2022-10-22T20:41:15.643Z,14.62
2022-10-22T20:43:46.621Z,14.53
2022-10-22T20:46:22.908Z,14.55
2022-10-22T20:48:55.242Z,14.45
2022-10-22T20:51:22.422Z,14.35
2022-10-22T20:53:49.415Z,14.31
2022-10-22T20:56:16.953Z,14.22
2022-10-22T20:58:48.131Z,14.17
2022-10-22T21:01:24.036Z,14.21
2022-10-22T21:03:52.877Z,14.25
2022-10-22T21:06:23.085Z,14.23
2022-10-22T21:08:51.198Z,14.14
2022-10-22T21:11:19.035Z,14.09
2022-10-22T21:13:46.220Z,13.97
2022-10-22T21:16:14.435Z,13.95
2022-10-22T21:18:41.331Z,13.82
2022-10-22T21:21:09.064Z,13.84
2022-10-22T21:23:36.630Z,13.84
2022-10-22T21:26:04.334Z,13.84
2022-10-22T21:28:32.811Z,13.79
2022-10-22T21:30:59.514Z,13.81
2022-10-22T21:33:26.441Z,13.76
2022-10-22T21:35:55.009Z,13.83
2022-10-22T21:38:23.123Z,13.85
2022-10-22T21:40:50.643Z,13.91
2022-10-22T21:43:18.075Z,13.93
2022-10-22T21:45:45.002Z,13.84
2022-10-22T21:48:13.661Z,13.86
2022-10-22T21:50:42.235Z,13.85
2022-10-22T21:53:10.483Z,13.85
2022-10-22T21:55:41.732Z,13.82
2022-10-22T21:58:09.002Z,13.87
2022-10-22T22:00:36.411Z,13.72
2022-10-22T22:03:05.889Z,13.64
2022-10-22T22:05:32.558Z,13.63
2022-10-22T22:07:59.309Z,13.59
2022-10-22T22:10:26.556Z,13.59
2022-10-22T22:12:53.295Z,13.67
2022-10-22T22:15:20.462Z,13.63
2022-10-22T22:17:47.425Z,13.67
2022-10-22T22:20:14.385Z,13.79
2022-10-22T22:22:41.284Z,13.74
2022-10-22T22:25:08.605Z,13.74
2022-10-22T22:27:35.319Z,13.79
2022-10-22T22:30:02.038Z,13.88
2022-10-22T22:32:28.759Z,13.93
2022-10-22T22:34:55.456Z,14.02
2022-10-22T22:37:22.103Z,14.08
2022-10-22T22:39:48.773Z,14.02
2022-10-22T22:42:15.524Z,13.94
2022-10-22T22:44:42.166Z,13.96
2022-10-22T22:47:08.874Z,14.00
2022-10-22T22:49:36.843Z,13.99
2022-10-22T22:52:04.327Z,14.01
2022-10-22T22:54:31.028Z,14.05
2022-10-22T22:56:57.666Z,14.07
2022-10-22T22:59:24.401Z,14.09
2022-10-22T23:01:51.457Z,14.15
2022-10-22T23:04:23.612Z,14.22
2022-10-22T23:06:51.242Z,14.24
2022-10-22T23:11:47.833Z,14.14
2022-10-22T23:14:16.458Z,14.13
2022-10-22T23:16:46.492Z,14.15
2022-10-22T23:19:15.379Z,14.17
2022-10-22T23:21:46.021Z,14.09
2022-10-22T23:24:15.586Z,14.03
2022-10-22T23:26:45.030Z,13.99
2022-10-22T23:29:14.774Z,13.96
2022-10-22T23:31:42.569Z,13.96
2022-10-22T23:34:11.422Z,13.97
2022-10-22T23:36:39.187Z,13.96
2022-10-22T23:39:08.739Z,13.91
2022-10-22T23:41:35.540Z,13.87
2022-10-22T23:44:03.643Z,13.86
2022-10-22T23:46:30.493Z,13.83
2022-10-22T23:48:57.196Z,13.80
2022-10-22T23:51:24.010Z,13.78
2022-10-22T23:53:56.114Z,13.78
2022-10-22T23:56:22.856Z,13.77
2022-10-22T23:58:51.949Z,13.74
